sensor_id;sensor_type;location;lat;lon;timestamp;P1;durP1;ratioP1;P2;durP2;ratioP2
18659;SDS011;9459;50.254;19.014;2022-09-27T00:01:59;27.75;;;21.13;;
18659;SDS011;9459;50.254;19.014;2022-09-27T00:04:27;28.42;;;20.85;;
18659;SDS011;9459;50.254;19.014;2022-09-27T00:06:55;27.25;;;22.20;;
18659;SDS011;9459;50.254;19.014;2022-09-27T00:09:24;28.33;;;21.23;;
18659;SDS011;9459;50.254;19.014;2022-09-27T00:11:54;30.15;;;23.42;;
18659;SDS011;9459;50.254;19.014;2022-09-27T00:14:22;31.95;;;23.88;;
18659;SDS011;9459;50.254;19.014;2022-09-27T00:16:50;33.10;;;25.35;;
18659;SDS011;9459;50.254;19.014;2022-09-27T00:19:19;30.95;;;22.08;;
18659;SDS011;9459;50.254;19.014;2022-09-27T00:21:49;29.02;;;21.98;;
18659;SDS011;9459;50.254;19.014;2022-09-27T00:24:18;28.25;;;22.35;;
18659;SDS011;9459;50.254;19.014;2022-09-27T00:26:48;29.88;;;22.70;;
18659;SDS011;9459;50.254;19.014;2022-09-27T00:29:18;28.70;;;22.33;;
18659;SDS011;9459;50.254;19.014;2022-09-27T00:31:46;33.90;;;23.92;;
18659;SDS011;9459;50.254;19.014;2022-09-27T00:34:16;31.58;;;22.58;;
18659;SDS011;9459;50.254;19.014;2022-09-27T00:36:46;30.85;;;22.15;;
18659;SDS011;9459;50.254;19.014;2022-09-27T00:39:15;29.60;;;22.92;;
18659;SDS011;9459;50.254;19.014;2022-09-27T00:41:45;24.95;;;19.13;;
18659;SDS011;9459;50.254;19.014;2022-09-27T00:47:17;28.77;;;23.23;;
18659;SDS011;9459;50.254;19.014;2022-09-27T00:49:49;27.00;;;21.10;;
18659;SDS011;9459;50.254;19.014;2022-09-27T00:52:19;27.73;;;21.92;;
18659;SDS011;9459;50.254;19.014;2022-09-27T00:54:52;29.42;;;22.77;;
18659;SDS011;9459;50.254;19.014;2022-09-27T00:57:21;32.70;;;23.10;;
18659;SDS011;9459;50.254;19.014;2022-09-27T00:59:52;27.90;;;20.77;;
18659;SDS011;9459;50.254;19.014;2022-09-27T01:02:25;27.63;;;21.23;;
18659;SDS011;9459;50.254;19.014;2022-09-27T01:04:53;27.83;;;21.38;;
18659;SDS011;9459;50.254;19.014;2022-09-27T01:07:22;26.27;;;20.08;;
18659;SDS011;9459;50.254;19.014;2022-09-27T01:09:50;29.45;;;20.95;;
18659;SDS011;9459;50.254;19.014;2022-09-27T01:12:21;28.98;;;20.52;;
18659;SDS011;9459;50.254;19.014;2022-09-27T01:14:58;26.90;;;20.10;;
18659;SDS011;9459;50.254;19.014;2022-09-27T01:17:38;29.83;;;21.35;;
18659;SDS011;9459;50.254;19.014;2022-09-27T01:20:19;28.27;;;19.80;;
18659;SDS011;9459;50.254;19.014;2022-09-27T01:23:02;30.52;;;22.30;;
18659;SDS011;9459;50.254;19.014;2022-09-27T01:25:45;34.90;;;22.48;;
18659;SDS011;9459;50.254;19.014;2022-09-27T01:28:20;32.42;;;23.95;;
18659;SDS011;9459;50.254;19.014;2022-09-27T01:30:54;33.90;;;23.77;;
18659;SDS011;9459;50.254;19.014;2022-09-27T01:33:41;32.45;;;22.70;;
18659;SDS011;9459;50.254;19.014;2022-09-27T01:36:14;33.53;;;23.85;;
18659;SDS011;9459;50.254;19.014;2022-09-27T01:38:54;35.45;;;23.77;;
18659;SDS011;9459;50.254;19.014;2022-09-27T01:41:26;32.97;;;22.02;;
18659;SDS011;9459;50.254;19.014;2022-09-27T01:44:02;32.08;;;21.95;;
18659;SDS011;9459;50.254;19.014;2022-09-27T01:46:35;30.83;;;22.10;;
18659;SDS011;9459;50.254;19.014;2022-09-27T01:49:07;37.20;;;25.13;;
18659;SDS011;9459;50.254;19.014;2022-09-27T01:51:39;43.55;;;22.75;;
18659;SDS011;9459;50.254;19.014;2022-09-27T01:56:40;29.02;;;21.60;;
18659;SDS011;9459;50.254;19.014;2022-09-27T01:59:12;32.10;;;22.58;;
18659;SDS011;9459;50.254;19.014;2022-09-27T02:01:44;33.53;;;22.55;;
18659;SDS011;9459;50.254;19.014;2022-09-27T02:04:16;31.92;;;22.17;;
18659;SDS011;9459;50.254;19.014;2022-09-27T02:06:48;33.10;;;23.55;;
18659;SDS011;9459;50.254;19.014;2022-09-27T02:09:21;29.90;;;23.65;;
18659;SDS011;9459;50.254;19.014;2022-09-27T02:11:53;30.73;;;22.73;;
18659;SDS011;9459;50.254;19.014;2022-09-27T02:14:25;38.38;;;25.98;;
18659;SDS011;9459;50.254;19.014;2022-09-27T02:16:58;32.72;;;24.85;;
18659;SDS011;9459;50.254;19.014;2022-09-27T02:19:31;39.20;;;26.55;;
18659;SDS011;9459;50.254;19.014;2022-09-27T02:22:05;37.22;;;26.20;;
18659;SDS011;9459;50.254;19.014;2022-09-27T02:24:38;35.00;;;25.02;;
18659;SDS011;9459;50.254;19.014;2022-09-27T02:27:11;35.30;;;25.60;;
18659;SDS011;9459;50.254;19.014;2022-09-27T02:29:42;39.42;;;26.45;;
18659;SDS011;9459;50.254;19.014;2022-09-27T02:32:16;36.60;;;24.25;;
18659;SDS011;9459;50.254;19.014;2022-09-27T02:34:44;33.33;;;23.92;;
18659;SDS011;9459;50.254;19.014;2022-09-27T02:37:13;31.30;;;23.08;;
18659;SDS011;9459;50.254;19.014;2022-09-27T02:39:42;34.58;;;20.48;;
18659;SDS011;9459;50.254;19.014;2022-09-27T02:42:10;30.48;;;21.85;;
18659;SDS011;9459;50.254;19.014;2022-09-27T02:44:39;30.17;;;21.65;;
18659;SDS011;9459;50.254;19.014;2022-09-27T02:47:12;25.95;;;19.08;;
18659;SDS011;9459;50.254;19.014;2022-09-27T02:50:11;36.92;;;22.67;;
18659;SDS011;9459;50.254;19.014;2022-09-27T02:52:54;28.35;;;21.38;;
18659;SDS011;9459;50.254;19.014;2022-09-27T02:55:28;29.10;;;22.05;;
18659;SDS011;9459;50.254;19.014;2022-09-27T02:58:07;32.45;;;21.52;;
18659;SDS011;9459;50.254;19.014;2022-09-27T03:00:40;29.13;;;21.00;;
18659;SDS011;9459;50.254;19.014;2022-09-27T03:03:13;26.65;;;20.80;;
18659;SDS011;9459;50.254;19.014;2022-09-27T03:05:48;28.77;;;20.83;;
18659;SDS011;9459;50.254;19.014;2022-09-27T03:08:19;32.50;;;22.30;;
18659;SDS011;9459;50.254;19.014;2022-09-27T03:10:48;28.95;;;21.23;;
18659;SDS011;9459;50.254;19.014;2022-09-27T03:13:16;27.85;;;20.55;;
18659;SDS011;9459;50.254;19.014;2022-09-27T03:15:44;31.98;;;21.85;;
18659;SDS011;9459;50.254;19.014;2022-09-27T03:18:13;29.17;;;21.35;;
18659;SDS011;9459;50.254;19.014;2022-09-27T03:20:42;30.42;;;21.10;;
18659;SDS011;9459;50.254;19.014;2022-09-27T03:23:11;30.05;;;22.58;;
18659;SDS011;9459;50.254;19.014;2022-09-27T03:25:40;28.80;;;20.33;;
18659;SDS011;9459;50.254;19.014;2022-09-27T03:28:08;33.15;;;21.02;;
18659;SDS011;9459;50.254;19.014;2022-09-27T03:30:36;25.35;;;19.45;;
18659;SDS011;9459;50.254;19.014;2022-09-27T03:33:04;27.25;;;19.88;;
18659;SDS011;9459;50.254;19.014;2022-09-27T03:35:34;28.88;;;19.30;;
18659;SDS011;9459;50.254;19.014;2022-09-27T03:38:03;26.27;;;19.05;;
18659;SDS011;9459;50.254;19.014;2022-09-27T03:40:34;25.92;;;18.60;;
18659;SDS011;9459;50.254;19.014;2022-09-27T03:43:02;29.48;;;18.63;;
18659;SDS011;9459;50.254;19.014;2022-09-27T03:45:31;23.48;;;17.25;;
18659;SDS011;9459;50.254;19.014;2022-09-27T03:47:59;23.90;;;17.75;;
18659;SDS011;9459;50.254;19.014;2022-09-27T03:50:28;23.60;;;17.85;;
18659;SDS011;9459;50.254;19.014;2022-09-27T03:52:56;23.67;;;16.88;;
18659;SDS011;9459;50.254;19.014;2022-09-27T03:55:24;24.45;;;17.33;;
18659;SDS011;9459;50.254;19.014;2022-09-27T03:57:54;22.63;;;16.80;;
18659;SDS011;9459;50.254;19.014;2022-09-27T04:00:27;23.55;;;17.48;;
18659;SDS011;9459;50.254;19.014;2022-09-27T04:02:58;22.92;;;17.48;;
18659;SDS011;9459;50.254;19.014;2022-09-27T04:05:27;21.77;;;16.85;;
18659;SDS011;9459;50.254;19.014;2022-09-27T04:07:56;23.00;;;16.77;;
18659;SDS011;9459;50.254;19.014;2022-09-27T04:10:24;23.80;;;16.50;;
18659;SDS011;9459;50.254;19.014;2022-09-27T04:12:54;24.75;;;16.90;;
18659;SDS011;9459;50.254;19.014;2022-09-27T04:15:22;20.88;;;15.82;;
18659;SDS011;9459;50.254;19.014;2022-09-27T04:17:51;21.27;;;15.35;;
18659;SDS011;9459;50.254;19.014;2022-09-27T04:20:19;20.17;;;15.48;;
18659;SDS011;9459;50.254;19.014;2022-09-27T04:22:47;18.45;;;14.55;;
18659;SDS011;9459;50.254;19.014;2022-09-27T04:25:17;18.48;;;14.07;;
18659;SDS011;9459;50.254;19.014;2022-09-27T04:27:46;18.35;;;13.90;;
18659;SDS011;9459;50.254;19.014;2022-09-27T04:30:19;18.08;;;13.88;;
18659;SDS011;9459;50.254;19.014;2022-09-27T04:32:47;15.60;;;12.45;;
18659;SDS011;9459;50.254;19.014;2022-09-27T04:35:16;22.08;;;13.85;;
18659;SDS011;9459;50.254;19.014;2022-09-27T04:38:02;18.73;;;14.35;;
18659;SDS011;9459;50.254;19.014;2022-09-27T04:40:32;16.42;;;13.52;;
18659;SDS011;9459;50.254;19.014;2022-09-27T04:43:01;17.55;;;13.38;;
18659;SDS011;9459;50.254;19.014;2022-09-27T04:45:31;17.40;;;13.80;;
18659;SDS011;9459;50.254;19.014;2022-09-27T04:48:00;19.83;;;13.80;;
18659;SDS011;9459;50.254;19.014;2022-09-27T04:50:28;22.10;;;14.38;;
18659;SDS011;9459;50.254;19.014;2022-09-27T04:53:02;17.65;;;13.48;;
18659;SDS011;9459;50.254;19.014;2022-09-27T04:55:30;18.35;;;14.13;;
18659;SDS011;9459;50.254;19.014;2022-09-27T04:57:58;17.73;;;13.80;;
18659;SDS011;9459;50.254;19.014;2022-09-27T05:00:27;19.75;;;14.05;;
18659;SDS011;9459;50.254;19.014;2022-09-27T05:02:57;20.17;;;13.23;;
18659;SDS011;9459;50.254;19.014;2022-09-27T05:05:25;17.08;;;13.85;;
18659;SDS011;9459;50.254;19.014;2022-09-27T05:07:53;16.23;;;13.60;;
18659;SDS011;9459;50.254;19.014;2022-09-27T05:10:22;16.33;;;12.35;;
18659;SDS011;9459;50.254;19.014;2022-09-27T05:12:50;19.40;;;12.98;;
18659;SDS011;9459;50.254;19.014;2022-09-27T05:15:18;16.70;;;13.02;;
18659;SDS011;9459;50.254;19.014;2022-09-27T05:17:46;14.85;;;12.68;;
18659;SDS011;9459;50.254;19.014;2022-09-27T05:20:19;15.60;;;12.75;;
18659;SDS011;9459;50.254;19.014;2022-09-27T05:22:47;17.27;;;12.50;;
18659;SDS011;9459;50.254;19.014;2022-09-27T05:25:16;15.98;;;12.38;;
18659;SDS011;9459;50.254;19.014;2022-09-27T05:27:45;14.93;;;11.32;;
18659;SDS011;9459;50.254;19.014;2022-09-27T05:30:13;15.05;;;11.65;;
18659;SDS011;9459;50.254;19.014;2022-09-27T05:32:42;13.05;;;11.27;;
18659;SDS011;9459;50.254;19.014;2022-09-27T05:35:12;13.48;;;11.05;;
18659;SDS011;9459;50.254;19.014;2022-09-27T05:37:42;13.20;;;10.23;;
18659;SDS011;9459;50.254;19.014;2022-09-27T05:40:10;12.85;;;10.15;;
18659;SDS011;9459;50.254;19.014;2022-09-27T05:42:58;13.60;;;11.07;;
18659;SDS011;9459;50.254;19.014;2022-09-27T05:45:26;13.93;;;10.70;;
18659;SDS011;9459;50.254;19.014;2022-09-27T05:47:55;13.52;;;10.60;;
18659;SDS011;9459;50.254;19.014;2022-09-27T05:50:25;11.93;;;10.20;;
18659;SDS011;9459;50.254;19.014;2022-09-27T05:52:55;14.05;;;9.90;;
18659;SDS011;9459;50.254;19.014;2022-09-27T05:55:23;12.82;;;10.13;;
18659;SDS011;9459;50.254;19.014;2022-09-27T05:57:55;12.73;;;10.00;;
18659;SDS011;9459;50.254;19.014;2022-09-27T06:00:23;13.27;;;10.85;;
18659;SDS011;9459;50.254;19.014;2022-09-27T06:02:53;11.68;;;8.45;;
18659;SDS011;9459;50.254;19.014;2022-09-27T06:05:23;12.88;;;8.82;;
18659;SDS011;9459;50.254;19.014;2022-09-27T06:07:53;18.88;;;10.40;;
18659;SDS011;9459;50.254;19.014;2022-09-27T06:10:27;14.98;;;9.18;;
18659;SDS011;9459;50.254;19.014;2022-09-27T06:12:59;11.85;;;8.82;;
18659;SDS011;9459;50.254;19.014;2022-09-27T06:15:28;12.75;;;9.80;;
18659;SDS011;9459;50.254;19.014;2022-09-27T06:18:01;11.18;;;8.60;;
18659;SDS011;9459;50.254;19.014;2022-09-27T06:20:31;14.02;;;9.40;;
18659;SDS011;9459;50.254;19.014;2022-09-27T06:23:04;10.35;;;8.55;;
18659;SDS011;9459;50.254;19.014;2022-09-27T06:25:34;11.73;;;7.82;;
18659;SDS011;9459;50.254;19.014;2022-09-27T06:28:03;11.43;;;8.00;;
18659;SDS011;9459;50.254;19.014;2022-09-27T06:30:32;8.38;;;7.43;;
18659;SDS011;9459;50.254;19.014;2022-09-27T06:33:01;9.02;;;8.13;;
18659;SDS011;9459;50.254;19.014;2022-09-27T06:35:30;10.73;;;8.68;;
18659;SDS011;9459;50.254;19.014;2022-09-27T06:38:01;10.57;;;8.48;;
18659;SDS011;9459;50.254;19.014;2022-09-27T06:40:32;13.10;;;9.93;;
18659;SDS011;9459;50.254;19.014;2022-09-27T06:43:01;11.18;;;9.38;;
18659;SDS011;9459;50.254;19.014;2022-09-27T06:45:31;10.57;;;8.88;;
18659;SDS011;9459;50.254;19.014;2022-09-27T06:48:00;11.10;;;8.70;;
18659;SDS011;9459;50.254;19.014;2022-09-27T06:50:29;10.40;;;9.30;;
18659;SDS011;9459;50.254;19.014;2022-09-27T06:52:58;11.48;;;9.20;;
18659;SDS011;9459;50.254;19.014;2022-09-27T06:55:27;14.73;;;9.02;;
18659;SDS011;9459;50.254;19.014;2022-09-27T06:57:57;12.88;;;9.25;;
18659;SDS011;9459;50.254;19.014;2022-09-27T07:00:44;11.75;;;9.23;;
18659;SDS011;9459;50.254;19.014;2022-09-27T07:03:13;10.48;;;8.73;;
18659;SDS011;9459;50.254;19.014;2022-09-27T07:05:42;11.00;;;9.00;;
18659;SDS011;9459;50.254;19.014;2022-09-27T07:08:12;11.32;;;8.20;;
18659;SDS011;9459;50.254;19.014;2022-09-27T07:10:41;11.32;;;8.55;;
18659;SDS011;9459;50.254;19.014;2022-09-27T07:13:10;11.25;;;8.38;;
18659;SDS011;9459;50.254;19.014;2022-09-27T07:15:39;12.00;;;8.63;;
18659;SDS011;9459;50.254;19.014;2022-09-27T07:18:08;14.82;;;9.73;;
18659;SDS011;9459;50.254;19.014;2022-09-27T07:20:37;10.48;;;6.75;;
18659;SDS011;9459;50.254;19.014;2022-09-27T07:23:07;8.60;;;6.50;;
18659;SDS011;9459;50.254;19.014;2022-09-27T07:25:37;7.22;;;6.53;;
18659;SDS011;9459;50.254;19.014;2022-09-27T07:28:06;13.55;;;6.55;;
18659;SDS011;9459;50.254;19.014;2022-09-27T07:30:38;8.20;;;6.35;;
18659;SDS011;9459;50.254;19.014;2022-09-27T07:33:07;7.82;;;6.07;;
18659;SDS011;9459;50.254;19.014;2022-09-27T07:35:37;9.70;;;6.53;;
18659;SDS011;9459;50.254;19.014;2022-09-27T07:38:06;6.95;;;5.97;;
18659;SDS011;9459;50.254;19.014;2022-09-27T07:40:38;8.73;;;6.63;;
18659;SDS011;9459;50.254;19.014;2022-09-27T07:43:08;7.30;;;6.18;;
18659;SDS011;9459;50.254;19.014;2022-09-27T07:45:39;9.43;;;6.00;;
18659;SDS011;9459;50.254;19.014;2022-09-27T07:48:10;12.00;;;6.03;;
18659;SDS011;9459;50.254;19.014;2022-09-27T07:50:41;8.43;;;5.50;;
18659;SDS011;9459;50.254;19.014;2022-09-27T07:53:10;9.43;;;6.07;;
18659;SDS011;9459;50.254;19.014;2022-09-27T07:55:39;6.18;;;5.53;;
18659;SDS011;9459;50.254;19.014;2022-09-27T07:58:09;9.02;;;5.93;;
18659;SDS011;9459;50.254;19.014;2022-09-27T08:00:40;8.73;;;5.25;;
18659;SDS011;9459;50.254;19.014;2022-09-27T08:03:10;6.95;;;5.43;;
18659;SDS011;9459;50.254;19.014;2022-09-27T08:05:47;8.02;;;5.80;;
18659;SDS011;9459;50.254;19.014;2022-09-27T08:08:16;8.40;;;5.82;;
18659;SDS011;9459;50.254;19.014;2022-09-27T08:10:44;6.25;;;5.25;;
18659;SDS011;9459;50.254;19.014;2022-09-27T08:13:13;5.60;;;4.85;;
18659;SDS011;9459;50.254;19.014;2022-09-27T08:15:45;5.93;;;5.15;;
18659;SDS011;9459;50.254;19.014;2022-09-27T08:18:14;14.03;;;12.53;;
18659;SDS011;9459;50.254;19.014;2022-09-27T08:20:43;74.10;;;67.75;;
18659;SDS011;9459;50.254;19.014;2022-09-27T08:23:12;7.75;;;5.13;;
18659;SDS011;9459;50.254;19.014;2022-09-27T08:25:41;6.18;;;4.55;;
18659;SDS011;9459;50.254;19.014;2022-09-27T08:28:09;5.78;;;4.50;;
18659;SDS011;9459;50.254;19.014;2022-09-27T08:30:38;7.90;;;3.85;;
18659;SDS011;9459;50.254;19.014;2022-09-27T08:33:08;4.88;;;4.35;;
18659;SDS011;9459;50.254;19.014;2022-09-27T08:35:36;5.03;;;3.90;;
18659;SDS011;9459;50.254;19.014;2022-09-27T08:38:05;5.82;;;4.15;;
18659;SDS011;9459;50.254;19.014;2022-09-27T08:40:37;7.13;;;4.30;;
18659;SDS011;9459;50.254;19.014;2022-09-27T08:43:14;5.70;;;3.90;;
18659;SDS011;9459;50.254;19.014;2022-09-27T08:45:53;5.82;;;4.57;;
18659;SDS011;9459;50.254;19.014;2022-09-27T08:48:27;4.70;;;4.18;;
18659;SDS011;9459;50.254;19.014;2022-09-27T08:50:56;7.35;;;5.68;;
18659;SDS011;9459;50.254;19.014;2022-09-27T08:53:26;10.00;;;5.50;;
18659;SDS011;9459;50.254;19.014;2022-09-27T08:55:57;7.32;;;5.60;;
18659;SDS011;9459;50.254;19.014;2022-09-27T08:58:30;7.80;;;5.05;;
18659;SDS011;9459;50.254;19.014;2022-09-27T09:00:59;6.65;;;4.70;;
18659;SDS011;9459;50.254;19.014;2022-09-27T09:03:31;6.75;;;4.50;;
18659;SDS011;9459;50.254;19.014;2022-09-27T09:06:06;7.35;;;4.35;;
18659;SDS011;9459;50.254;19.014;2022-09-27T09:08:39;7.47;;;5.03;;
18659;SDS011;9459;50.254;19.014;2022-09-27T09:11:19;6.03;;;5.28;;
18659;SDS011;9459;50.254;19.014;2022-09-27T09:14:20;6.43;;;3.88;;
18659;SDS011;9459;50.254;19.014;2022-09-27T09:16:58;6.40;;;4.07;;
18659;SDS011;9459;50.254;19.014;2022-09-27T09:19:38;7.10;;;4.43;;
18659;SDS011;9459;50.254;19.014;2022-09-27T09:22:17;5.00;;;4.20;;
18659;SDS011;9459;50.254;19.014;2022-09-27T09:24:58;6.35;;;4.18;;
18659;SDS011;9459;50.254;19.014;2022-09-27T09:27:36;5.82;;;4.40;;
18659;SDS011;9459;50.254;19.014;2022-09-27T09:30:16;4.57;;;3.83;;
18659;SDS011;9459;50.254;19.014;2022-09-27T09:32:51;5.68;;;3.80;;
18659;SDS011;9459;50.254;19.014;2022-09-27T09:35:29;4.78;;;3.55;;
18659;SDS011;9459;50.254;19.014;2022-09-27T09:38:03;5.47;;;4.18;;
18659;SDS011;9459;50.254;19.014;2022-09-27T09:40:37;4.38;;;3.42;;
18659;SDS011;9459;50.254;19.014;2022-09-27T09:43:09;3.55;;;3.00;;
18659;SDS011;9459;50.254;19.014;2022-09-27T09:45:43;4.55;;;3.15;;
18659;SDS011;9459;50.254;19.014;2022-09-27T09:50:46;7.07;;;3.30;;
18659;SDS011;9459;50.254;19.014;2022-09-27T09:53:16;5.63;;;3.00;;
18659;SDS011;9459;50.254;19.014;2022-09-27T09:55:47;5.32;;;4.10;;
18659;SDS011;9459;50.254;19.014;2022-09-27T09:58:20;4.55;;;3.17;;
18659;SDS011;9459;50.254;19.014;2022-09-27T10:00:52;3.83;;;3.33;;
18659;SDS011;9459;50.254;19.014;2022-09-27T10:03:23;5.40;;;3.47;;
18659;SDS011;9459;50.254;19.014;2022-09-27T10:05:52;5.60;;;3.30;;
18659;SDS011;9459;50.254;19.014;2022-09-27T10:08:22;6.15;;;4.47;;
18659;SDS011;9459;50.254;19.014;2022-09-27T10:10:51;5.07;;;3.33;;
18659;SDS011;9459;50.254;19.014;2022-09-27T10:13:20;7.20;;;3.90;;
18659;SDS011;9459;50.254;19.014;2022-09-27T10:15:50;7.63;;;5.22;;
18659;SDS011;9459;50.254;19.014;2022-09-27T10:18:22;7.10;;;3.60;;
18659;SDS011;9459;50.254;19.014;2022-09-27T10:20:54;3.97;;;3.58;;
18659;SDS011;9459;50.254;19.014;2022-09-27T10:23:24;4.97;;;3.72;;
18659;SDS011;9459;50.254;19.014;2022-09-27T10:25:53;6.15;;;3.47;;
18659;SDS011;9459;50.254;19.014;2022-09-27T10:28:29;6.53;;;2.95;;
18659;SDS011;9459;50.254;19.014;2022-09-27T10:31:00;5.50;;;3.38;;
18659;SDS011;9459;50.254;19.014;2022-09-27T10:33:30;6.88;;;3.83;;
18659;SDS011;9459;50.254;19.014;2022-09-27T10:36:00;5.72;;;3.58;;
18659;SDS011;9459;50.254;19.014;2022-09-27T10:38:30;3.97;;;3.13;;
18659;SDS011;9459;50.254;19.014;2022-09-27T10:41:14;4.10;;;2.95;;
18659;SDS011;9459;50.254;19.014;2022-09-27T10:43:44;5.75;;;3.60;;
18659;SDS011;9459;50.254;19.014;2022-09-27T10:46:14;5.97;;;2.50;;
18659;SDS011;9459;50.254;19.014;2022-09-27T10:48:47;3.38;;;3.00;;
18659;SDS011;9459;50.254;19.014;2022-09-27T10:51:21;3.65;;;3.08;;
18659;SDS011;9459;50.254;19.014;2022-09-27T10:53:52;4.82;;;2.92;;
18659;SDS011;9459;50.254;19.014;2022-09-27T10:56:25;3.25;;;2.20;;
18659;SDS011;9459;50.254;19.014;2022-09-27T10:58:56;2.95;;;2.50;;
18659;SDS011;9459;50.254;19.014;2022-09-27T11:01:25;4.93;;;3.40;;
18659;SDS011;9459;50.254;19.014;2022-09-27T11:03:55;10.25;;;8.13;;
18659;SDS011;9459;50.254;19.014;2022-09-27T11:06:30;5.90;;;5.30;;
18659;SDS011;9459;50.254;19.014;2022-09-27T11:09:15;4.47;;;3.08;;
18659;SDS011;9459;50.254;19.014;2022-09-27T11:11:45;3.63;;;2.35;;
18659;SDS011;9459;50.254;19.014;2022-09-27T11:14:17;3.90;;;2.70;;
18659;SDS011;9459;50.254;19.014;2022-09-27T11:16:55;4.32;;;2.90;;
18659;SDS011;9459;50.254;19.014;2022-09-27T11:19:48;6.80;;;3.53;;
18659;SDS011;9459;50.254;19.014;2022-09-27T11:22:40;5.00;;;2.90;;
18659;SDS011;9459;50.254;19.014;2022-09-27T11:25:27;7.80;;;3.97;;
18659;SDS011;9459;50.254;19.014;2022-09-27T11:28:02;5.53;;;3.03;;
18659;SDS011;9459;50.254;19.014;2022-09-27T11:30:34;4.60;;;3.17;;
18659;SDS011;9459;50.254;19.014;2022-09-27T11:33:12;3.58;;;2.67;;
18659;SDS011;9459;50.254;19.014;2022-09-27T11:35:51;4.22;;;3.20;;
18659;SDS011;9459;50.254;19.014;2022-09-27T11:38:25;4.97;;;3.00;;
18659;SDS011;9459;50.254;19.014;2022-09-27T11:41:27;3.92;;;3.33;;
18659;SDS011;9459;50.254;19.014;2022-09-27T11:44:07;4.60;;;2.80;;
18659;SDS011;9459;50.254;19.014;2022-09-27T11:46:49;4.38;;;3.42;;
18659;SDS011;9459;50.254;19.014;2022-09-27T11:49:27;3.42;;;2.72;;
18659;SDS011;9459;50.254;19.014;2022-09-27T11:52:11;5.53;;;3.75;;
18659;SDS011;9459;50.254;19.014;2022-09-27T11:54:51;6.13;;;3.75;;
18659;SDS011;9459;50.254;19.014;2022-09-27T11:57:28;4.53;;;3.28;;
18659;SDS011;9459;50.254;19.014;2022-09-27T12:00:11;5.07;;;3.33;;
18659;SDS011;9459;50.254;19.014;2022-09-27T12:05:51;3.33;;;2.95;;
18659;SDS011;9459;50.254;19.014;2022-09-27T12:08:36;4.38;;;3.00;;
18659;SDS011;9459;50.254;19.014;2022-09-27T12:11:22;4.45;;;3.28;;
18659;SDS011;9459;50.254;19.014;2022-09-27T12:13:54;5.78;;;3.78;;
18659;SDS011;9459;50.254;19.014;2022-09-27T12:16:24;6.70;;;4.00;;
18659;SDS011;9459;50.254;19.014;2022-09-27T12:18:53;4.60;;;3.88;;
18659;SDS011;9459;50.254;19.014;2022-09-27T12:21:21;6.68;;;3.65;;
18659;SDS011;9459;50.254;19.014;2022-09-27T12:23:52;5.32;;;4.07;;
18659;SDS011;9459;50.254;19.014;2022-09-27T12:26:27;5.45;;;3.67;;
18659;SDS011;9459;50.254;19.014;2022-09-27T12:28:58;6.05;;;3.47;;
18659;SDS011;9459;50.254;19.014;2022-09-27T12:31:30;3.58;;;3.03;;
18659;SDS011;9459;50.254;19.014;2022-09-27T12:34:04;4.18;;;3.00;;
18659;SDS011;9459;50.254;19.014;2022-09-27T12:36:45;9.30;;;6.93;;
18659;SDS011;9459;50.254;19.014;2022-09-27T12:39:17;3.47;;;3.00;;
18659;SDS011;9459;50.254;19.014;2022-09-27T12:41:50;7.78;;;4.10;;
18659;SDS011;9459;50.254;19.014;2022-09-27T12:44:22;3.38;;;3.08;;
18659;SDS011;9459;50.254;19.014;2022-09-27T12:46:53;3.28;;;2.70;;
18659;SDS011;9459;50.254;19.014;2022-09-27T12:49:30;3.50;;;2.88;;
18659;SDS011;9459;50.254;19.014;2022-09-27T12:52:07;5.90;;;3.20;;
18659;SDS011;9459;50.254;19.014;2022-09-27T12:54:42;5.45;;;3.58;;
18659;SDS011;9459;50.254;19.014;2022-09-27T12:57:35;4.47;;;4.00;;
18659;SDS011;9459;50.254;19.014;2022-09-27T13:00:09;4.05;;;3.65;;
18659;SDS011;9459;50.254;19.014;2022-09-27T13:02:48;6.28;;;5.10;;
18659;SDS011;9459;50.254;19.014;2022-09-27T13:11:53;13.50;;;6.80;;
18659;SDS011;9459;50.254;19.014;2022-09-27T13:14:29;10.52;;;5.60;;
18659;SDS011;9459;50.254;19.014;2022-09-27T13:17:00;6.13;;;3.70;;
18659;SDS011;9459;50.254;19.014;2022-09-27T13:19:41;6.20;;;3.45;;
18659;SDS011;9459;50.254;19.014;2022-09-27T13:25:13;6.43;;;5.15;;
18659;SDS011;9459;50.254;19.014;2022-09-27T13:28:30;6.95;;;5.60;;
18659;SDS011;9459;50.254;19.014;2022-09-27T13:31:02;7.18;;;5.13;;
18659;SDS011;9459;50.254;19.014;2022-09-27T13:33:33;6.97;;;6.05;;
18659;SDS011;9459;50.254;19.014;2022-09-27T13:36:16;6.85;;;5.38;;
18659;SDS011;9459;50.254;19.014;2022-09-27T13:38:59;7.78;;;6.28;;
18659;SDS011;9459;50.254;19.014;2022-09-27T13:41:58;7.63;;;5.53;;
18659;SDS011;9459;50.254;19.014;2022-09-27T13:44:39;8.98;;;5.38;;
18659;SDS011;9459;50.254;19.014;2022-09-27T13:47:17;9.23;;;6.82;;
18659;SDS011;9459;50.254;19.014;2022-09-27T13:49:52;7.63;;;6.00;;
18659;SDS011;9459;50.254;19.014;2022-09-27T13:52:26;9.77;;;8.00;;
18659;SDS011;9459;50.254;19.014;2022-09-27T13:54:59;9.00;;;8.10;;
18659;SDS011;9459;50.254;19.014;2022-09-27T13:57:42;8.98;;;7.68;;
18659;SDS011;9459;50.254;19.014;2022-09-27T14:00:15;10.52;;;8.57;;
18659;SDS011;9459;50.254;19.014;2022-09-27T14:02:53;8.93;;;7.07;;
18659;SDS011;9459;50.254;19.014;2022-09-27T14:05:25;9.85;;;7.65;;
18659;SDS011;9459;50.254;19.014;2022-09-27T14:07:55;10.10;;;8.10;;
18659;SDS011;9459;50.254;19.014;2022-09-27T14:10:27;9.80;;;8.55;;
18659;SDS011;9459;50.254;19.014;2022-09-27T14:12:57;10.00;;;7.78;;
18659;SDS011;9459;50.254;19.014;2022-09-27T14:15:27;9.98;;;7.85;;
18659;SDS011;9459;50.254;19.014;2022-09-27T14:17:57;11.48;;;7.93;;
18659;SDS011;9459;50.254;19.014;2022-09-27T14:20:36;9.23;;;7.70;;
18659;SDS011;9459;50.254;19.014;2022-09-27T14:23:11;8.93;;;7.93;;
18659;SDS011;9459;50.254;19.014;2022-09-27T14:25:43;10.70;;;9.57;;
18659;SDS011;9459;50.254;19.014;2022-09-27T14:28:19;8.48;;;5.05;;
18659;SDS011;9459;50.254;19.014;2022-09-27T14:31:02;6.05;;;3.70;;
18659;SDS011;9459;50.254;19.014;2022-09-27T14:33:33;6.15;;;3.60;;
18659;SDS011;9459;50.254;19.014;2022-09-27T14:36:02;4.13;;;2.67;;
18659;SDS011;9459;50.254;19.014;2022-09-27T14:38:51;3.75;;;2.30;;
18659;SDS011;9459;50.254;19.014;2022-09-27T14:41:19;6.47;;;3.03;;
18659;SDS011;9459;50.254;19.014;2022-09-27T14:43:47;5.25;;;2.72;;
18659;SDS011;9459;50.254;19.014;2022-09-27T14:46:23;4.68;;;2.88;;
18659;SDS011;9459;50.254;19.014;2022-09-27T14:48:55;4.90;;;2.63;;
18659;SDS011;9459;50.254;19.014;2022-09-27T14:51:26;5.75;;;2.65;;
18659;SDS011;9459;50.254;19.014;2022-09-27T14:53:56;3.00;;;2.40;;
18659;SDS011;9459;50.254;19.014;2022-09-27T14:56:27;4.25;;;2.38;;
18659;SDS011;9459;50.254;19.014;2022-09-27T14:59:00;5.50;;;2.92;;
18659;SDS011;9459;50.254;19.014;2022-09-27T15:01:30;5.35;;;2.95;;
18659;SDS011;9459;50.254;19.014;2022-09-27T15:04:06;4.55;;;2.50;;
18659;SDS011;9459;50.254;19.014;2022-09-27T15:06:38;5.32;;;2.88;;
18659;SDS011;9459;50.254;19.014;2022-09-27T15:09:09;3.58;;;2.25;;
18659;SDS011;9459;50.254;19.014;2022-09-27T15:11:39;6.03;;;3.03;;
18659;SDS011;9459;50.254;19.014;2022-09-27T15:14:09;3.70;;;2.80;;
18659;SDS011;9459;50.254;19.014;2022-09-27T15:16:40;9.05;;;3.47;;
18659;SDS011;9459;50.254;19.014;2022-09-27T15:19:13;4.07;;;2.42;;
18659;SDS011;9459;50.254;19.014;2022-09-27T15:21:44;4.63;;;2.90;;
18659;SDS011;9459;50.254;19.014;2022-09-27T15:27:03;4.68;;;2.55;;
18659;SDS011;9459;50.254;19.014;2022-09-27T15:29:34;3.95;;;3.13;;
18659;SDS011;9459;50.254;19.014;2022-09-27T15:32:03;4.97;;;3.40;;